Startpagina
METAR-TAF:

METAR-TAF

Vliegvelden :

Wiener Neustadt, Oostenrijk

breedte: 47-50-36N, lengte: 016-15-29E, hoogte: 272 m

Actueel weer

Dit bericht is 1 uur en het 35 minuten geleden gemaakt, om 16:00 UTC
Wind 4 kt uit het oosten
Temperatuur
Druk
Onbewolkt

METAR: LOAN 171600Z 10004KT 15KM SKC

Tijdstip: 18:35 (17:35 UTC)

Verwachting

Dit bericht is 6 uur en het 10 minuten geleden gemaakt, om 11:25 UTC
Verwachting geldig van 17 om 12 UTC tot 17 om 21 UTC
Wind 2 kt uit variabele richting
Zicht 10 km of meer
Onbewolkt

TAF: LOAN 171125Z 1712/1721 VRB02KT 9999 SKC

Waarnemingen en weersverwachtingen van meer dan 4000 vliegvelden (METAR en TAF).

De beschikbare stations zijn de gele en rode punten op de kaart.

Ga met uw muis naar het station om de naam te zien.

Klik dan om waarnemingen en weersverwachtingen te zien.

kaart wijzigen: klik op de groene knoppen met een zwart kruis om in te zoomen, op de groene knop met een streepje om uit te zoomen of op de groene pijlen voor aangrenzende kaarten.


METAR-TAF: